Time;durP1;ratioP1;P1;durP2;ratioP2;P2;SDS_P1;SDS_P2;PMS_P1;PMS_P2;Temp;Humidity;BMP_temperature;BMP_pressure;BME280_temperature;BME280_humidity;BME280_pressure;Samples;Min_cycle;Max_cycle;Signal;HPM_P1;HPM_P2
2022/08/15 00:00:27;;;;;;;4.47;2.83;;;;;;;26.85;46.18;100203.34;5075351;28;20063;-74
2022/08/15 00:02:57;;;;;;;4.88;2.88;;;;;;;26.86;46.06;100213.19;5074790;28;20067;-74
2022/08/15 00:05:32;;;;;;;3.10;2.65;;;;;;;26.86;46.14;100215.09;5059145;28;20041;-75
2022/08/15 00:08:06;;;;;;;3.80;2.50;;;;;;;26.86;45.94;100212.38;5054438;28;20060;-74
2022/08/15 00:10:58;;;;;;;3.75;2.50;;;;;;;26.86;45.96;100215.91;5055205;28;20060;-74
2022/08/15 00:13:50;;;;;;;4.00;2.50;;;;;;;26.86;45.90;100215.09;5054539;28;20044;-74
2022/08/15 00:16:29;;;;;;;5.95;3.13;;;;;;;26.86;45.98;100213.19;5054471;28;20053;-75
2022/08/15 00:18:59;;;;;;;;;;;;;;;26.86;45.92;100209.66;5055544;28;20045;-74
2022/08/15 00:21:27;;;;;;;3.30;2.20;;;;;;;26.86;45.75;100198.78;5054367;28;20269;-74
2022/08/15 00:23:57;;;;;;;4.97;2.50;;;;;;;26.86;45.78;100198.78;5035415;28;20408;-75
2022/08/15 00:26:24;;;;;;;4.40;2.40;;;;;;;26.86;45.97;100193.34;5034144;28;20045;-74
2022/08/15 00:29:13;;;;;;;3.72;2.55;;;;;;;26.86;45.99;100193.34;5033298;28;20057;-75
2022/08/15 00:31:40;;;;;;;3.42;2.65;;;;;;;26.87;45.69;100197.75;5032888;28;20061;-75
2022/08/15 00:34:11;;;;;;;4.10;2.92;;;;;;;26.87;45.93;100201.28;5032674;28;20049;-75
2022/08/15 00:37:00;;;;;;;4.97;2.80;;;;;;;26.86;45.98;100199.63;5032736;28;20053;-74
2022/08/15 00:39:32;;;;;;;4.05;2.85;;;;;;;26.87;45.85;100201.28;5033114;28;20045;-74
2022/08/15 00:42:08;;;;;;;3.65;2.65;;;;;;;26.88;46.00;100204.84;5032734;28;20061;-75
2022/08/15 00:44:46;;;;;;;3.22;2.58;;;;;;;26.87;45.79;100192.31;5033093;28;20037;-74
2022/08/15 00:47:28;;;;;;;4.65;2.70;;;;;;;26.87;46.04;100192.31;5032887;28;20049;-75
2022/08/15 00:50:09;;;;;;;4.03;2.30;;;;;;;26.87;45.85;100195.88;5033969;28;20477;-74
2022/08/15 00:52:56;;;;;;;4.18;2.72;;;;;;;26.87;45.87;100187.72;5032409;28;20061;-75
2022/08/15 00:55:27;;;;;;;2.85;2.30;;;;;;;26.88;45.72;100199.41;5033910;28;20049;-75
2022/08/15 00:58:00;;;;;;;2.97;2.30;;;;;;;26.87;45.90;100192.31;5032826;28;20053;-74
2022/08/15 01:00:44;;;;;;;3.95;2.70;;;;;;;26.87;45.74;100195.88;5033818;28;20064;-74
2022/08/15 01:03:25;;;;;;;3.25;2.75;;;;;;;26.88;45.85;100204.84;5032312;28;20053;-74
2022/08/15 01:05:56;;;;;;;3.63;2.33;;;;;;;26.87;45.86;100198.56;5049570;28;20052;-74
2022/08/15 01:08:28;;;;;;;2.85;2.53;;;;;;;26.88;45.84;100200.25;5052979;28;20037;-75
2022/08/15 01:11:37;;;;;;;3.80;2.88;;;;;;;26.87;45.83;100198.56;5059749;28;20067;-75
2022/08/15 01:14:08;;;;;;;3.22;2.45;;;;;;;26.88;45.80;100199.41;5074000;28;20476;-74
2022/08/15 01:16:58;;;;;;;4.80;2.13;;;;;;;26.88;45.95;100207.56;5073778;28;20388;-74
2022/08/15 01:19:31;;;;;;;3.60;2.30;;;;;;;26.87;45.87;100201.28;5071908;28;20051;-74
2022/08/15 01:22:16;;;;;;;2.88;2.10;;;;;;;26.88;46.08;100196.69;5069801;28;20052;-75
2022/08/15 01:25:13;;;;;;;2.95;2.40;;;;;;;26.88;45.86;100196.69;5051985;28;20378;-75
2022/08/15 01:28:08;;;;;;;2.78;2.33;;;;;;;26.88;45.99;100199.41;5052065;28;20519;-75
2022/08/15 01:30:44;;;;;;;4.38;2.78;;;;;;;26.89;46.07;100195.66;5036116;28;20087;-75
2022/08/15 01:33:36;;;;;;;2.47;2.17;;;;;;;26.88;45.96;100194.81;5038256;28;20053;-75
2022/08/15 01:36:07;;;;;;;5.63;2.97;;;;;;;26.88;45.95;100193.97;5051402;28;20132;-74
2022/08/15 01:39:03;;;;;;;3.05;2.70;;;;;;;26.88;45.95;100193.97;5053167;28;20048;-74
2022/08/15 01:41:48;;;;;;;3.50;2.25;;;;;;;26.88;45.74;100189.38;5051993;28;20439;-75
2022/08/15 01:44:24;;;;;;;3.95;2.80;;;;;;;26.88;45.93;100186.66;5051643;28;20056;-74
2022/08/15 01:47:14;;;;;;;2.80;2.50;;;;;;;26.87;45.78;100182.28;5051883;28;20068;-74
2022/08/15 01:49:51;;;;;;;3.08;2.35;;;;;;;26.88;46.07;100186.66;5051882;28;20060;-74
2022/08/15 01:52:50;;;;;;;4.68;2.53;;;;;;;26.88;45.94;100188.56;5051786;28;20381;-74
2022/08/15 01:55:52;;;;;;;3.85;2.72;;;;;;;26.88;45.76;100191.25;5032169;28;20400;-74
2022/08/15 01:58:25;;;;;;;3.25;2.60;;;;;;;26.87;45.69;100185.00;5032434;28;20049;-74
2022/08/15 02:01:01;;;;;;;4.57;2.72;;;;;;;26.89;45.73;100182.06;5031329;28;20053;-74
2022/08/15 02:03:34;;;;;;;3.17;2.50;;;;;;;26.88;45.65;100183.13;5031537;28;20386;-74
2022/08/15 02:06:24;;;;;;;3.38;2.75;;;;;;;26.88;45.81;100180.41;5038320;28;20052;-74
2022/08/15 02:09:12;;;;;;;4.25;2.67;;;;;;;26.88;45.94;100180.41;5036803;28;20079;-74
2022/08/15 02:12:00;;;;;;;3.40;2.50;;;;;;;26.87;45.78;100179.56;5037840;28;20061;-74
2022/08/15 02:14:45;;;;;;;4.03;2.65;;;;;;;26.88;45.88;100178.53;5052917;28;20063;-74
2022/08/15 02:17:16;;;;;;;4.30;2.50;;;;;;;26.87;45.94;100179.56;5051235;28;20053;-74
2022/08/15 02:19:48;;;;;;;3.40;2.35;;;;;;;26.88;45.70;100181.25;5051848;28;20052;-74
2022/08/15 02:22:22;;;;;;;4.28;2.70;;;;;;;26.88;45.69;100178.53;5051397;28;20064;-74
2022/08/15 02:24:59;;;;;;;3.65;2.58;;;;;;;26.88;45.60;100178.53;5051502;28;20060;-74
2022/08/15 02:27:33;;;;;;;3.30;2.53;;;;;;;26.88;45.76;100180.41;5051968;28;20131;-73
2022/08/15 02:30:12;;;;;;;3.38;2.72;;;;;;;26.88;45.97;100175.81;5051465;28;20045;-74
2022/08/15 02:32:44;;;;;;;3.17;2.40;;;;;;;26.88;45.90;100169.53;5052802;28;20045;-76
2022/08/15 02:35:16;;;;;;;3.38;2.22;;;;;;;26.88;45.67;100170.38;5051384;28;20057;-76
2022/08/15 02:37:46;;;;;;;3.90;2.65;;;;;;;26.89;45.71;100176.63;5051633;28;20057;-76
2022/08/15 02:40:26;;;;;;;2.92;2.60;;;;;;;26.89;45.92;100171.22;5051384;28;20057;-76
2022/08/15 02:43:14;;;;;;;2.55;2.13;;;;;;;26.89;45.69;100176.63;5050888;28;20064;-77
2022/08/15 02:45:47;;;;;;;4.63;2.22;;;;;;;26.90;45.76;100181.06;5051885;28;20049;-77
2022/08/15 02:48:39;;;;;;;2.90;2.20;;;;;;;26.88;45.92;100175.81;5055000;28;20055;-75
2022/08/15 02:51:13;;;;;;;3.53;2.83;;;;;;;26.89;45.73;100173.94;5056629;28;20037;-75
2022/08/15 02:53:45;;;;;;;3.05;2.45;;;;;;;26.88;45.79;100166.81;5054660;28;20056;-76
2022/08/15 02:56:21;;;;;;;3.10;2.60;;;;;;;26.88;46.31;100170.38;5038545;28;20480;-76
2022/08/15 02:58:49;;;;;;;3.22;2.53;;;;;;;26.88;46.39;100164.09;5054982;28;20060;-75
2022/08/15 03:01:20;;;;;;;2.95;2.65;;;;;;;26.87;46.00;100162.44;5054424;28;20052;-75
2022/08/15 03:03:54;;;;;;;3.22;2.70;;;;;;;26.86;46.00;100161.59;5054517;28;20056;-76
2022/08/15 03:06:32;;;;;;;4.07;2.70;;;;;;;26.86;45.68;100158.88;5054691;28;20075;-76
2022/08/15 03:09:07;;;;;;;2.90;2.45;;;;;;;26.86;45.76;100149.91;5048498;28;20037;-75
2022/08/15 03:11:58;;;;;;;3.22;2.50;;;;;;;26.86;45.85;100150.72;5061785;28;20055;-76
2022/08/15 03:14:36;;;;;;;4.60;2.85;;;;;;;26.87;46.17;100157.00;5074361;28;20053;-76
2022/08/15 03:17:10;;;;;;;4.53;2.63;;;;;;;26.85;45.92;100153.63;5074149;28;20052;-76
2022/08/15 03:19:43;;;;;;;3.00;2.58;;;;;;;26.86;46.21;100160.75;5074624;28;20044;-76
2022/08/15 03:22:13;;;;;;;3.10;2.80;;;;;;;26.85;46.09;100153.63;5070043;28;20052;-76
2022/08/15 03:25:00;;;;;;;3.92;2.63;;;;;;;26.84;45.97;100149.25;5054319;28;20061;-76
2022/08/15 03:27:30;;;;;;;3.67;2.47;;;;;;;26.85;46.03;100159.91;5054585;28;20060;-75
2022/08/15 03:30:06;;;;;;;3.05;2.58;;;;;;;26.84;46.20;100157.38;5053814;28;20060;-76
2022/08/15 03:32:45;;;;;;;4.10;2.78;;;;;;;26.85;46.41;100159.06;5054573;28;20048;-76
2022/08/15 03:35:14;;;;;;;3.03;2.70;;;;;;;26.85;46.58;100154.47;5037181;28;20416;-76
2022/08/15 03:37:43;;;;;;;3.13;2.60;;;;;;;26.84;46.54;100158.22;5054151;28;20055;-76
2022/08/15 03:40:29;;;;;;;3.83;2.88;;;;;;;26.84;46.30;100160.94;5053811;28;20048;-76
2022/08/15 03:43:00;;;;;;;3.33;2.97;;;;;;;26.84;46.54;100160.09;5038073;28;20049;-76
2022/08/15 03:45:50;;;;;;;3.17;2.65;;;;;;;26.83;46.61;100164.69;5054336;28;20049;-76
2022/08/15 03:48:26;;;;;;;4.70;2.83;;;;;;;26.82;46.32;100162.19;5053973;28;20412;-76
2022/08/15 03:50:57;;;;;;;3.95;2.50;;;;;;;26.82;46.68;100159.47;5055305;28;20052;-76
2022/08/15 03:53:35;;;;;;;3.47;2.70;;;;;;;26.82;46.13;100164.91;5053819;28;20049;-76
2022/08/15 03:56:17;;;;;;;3.80;2.70;;;;;;;26.82;46.39;100160.31;5033887;28;20048;-76
2022/08/15 03:58:47;;;;;;;3.95;2.53;;;;;;;26.82;46.21;100164.91;5049612;28;20363;-75
2022/08/15 04:01:19;;;;;;;3.05;2.70;;;;;;;26.82;46.39;100164.91;5050136;28;20397;-75
2022/08/15 04:03:57;;;;;;;2.63;2.42;;;;;;;26.82;46.66;100163.03;5033788;28;20061;-75
2022/08/15 04:06:32;;;;;;;3.58;2.50;;;;;;;26.82;46.47;100165.75;5033751;28;20057;-75
2022/08/15 04:09:04;;;;;;;3.30;2.45;;;;;;;26.81;46.37;100166.75;5043934;28;20056;-75
2022/08/15 04:11:48;;;;;;;3.38;2.70;;;;;;;26.81;46.23;100164.03;5052717;28;20056;-75
2022/08/15 04:14:28;;;;;;;3.10;2.50;;;;;;;26.81;46.73;100169.47;5053528;28;20049;-75
2022/08/15 04:17:06;;;;;;;3.90;2.58;;;;;;;26.82;46.76;100178.50;5038393;28;20053;-75
2022/08/15 04:19:45;;;;;;;4.68;2.83;;;;;;;26.81;46.63;100176.78;5053396;28;20503;-75
2022/08/15 04:22:34;;;;;;;2.70;2.40;;;;;;;26.81;46.80;100174.91;5053799;28;20048;-75
2022/08/15 04:25:35;;;;;;;2.90;2.60;;;;;;;26.81;46.78;100174.91;5053665;28;20053;-75
2022/08/15 04:28:14;;;;;;;2.55;2.35;;;;;;;26.81;46.68;100188.50;5052757;28;20496;-75
2022/08/15 04:31:06;;;;;;;3.50;3.05;;;;;;;26.81;46.78;100184.94;5039724;28;20064;-75
2022/08/15 04:33:34;;;;;;;5.70;2.88;;;;;;;26.80;47.06;100184.09;5053140;28;20049;-75
2022/08/15 04:36:25;;;;;;;2.75;2.50;;;;;;;26.80;47.10;100186.81;5052994;28;20408;-75
2022/08/15 04:39:00;;;;;;;3.45;2.35;;;;;;;26.80;46.89;100185.97;5052755;28;20509;-75
2022/08/15 04:41:32;;;;;;;3.25;2.83;;;;;;;26.80;46.84;100192.25;5052693;28;20052;-76
2022/08/15 04:44:04;;;;;;;3.67;2.67;;;;;;;26.80;46.61;100191.41;5052844;28;20052;-76
2022/08/15 04:46:32;;;;;;;3.17;2.88;;;;;;;26.79;46.97;100192.44;5052602;28;20045;-76
2022/08/15 04:49:00;;;;;;;3.50;2.60;;;;;;;26.79;46.79;100197.88;5052584;28;20049;-76
2022/08/15 04:51:28;;;;;;;4.28;2.90;;;;;;;26.79;46.97;100195.16;5053054;28;20511;-76
2022/08/15 04:54:07;;;;;;;3.13;2.72;;;;;;;26.78;47.23;100197.06;5052476;28;20226;-76
2022/08/15 04:56:38;;;;;;;3.35;2.83;;;;;;;26.77;47.24;100200.78;5052917;28;20071;-77
2022/08/15 04:59:21;;;;;;;;;;;;;;;26.78;47.25;100201.63;5052799;28;20053;-77
2022/08/15 05:02:10;;;;;;;4.82;2.80;;;;;;;26.77;46.95;100206.22;5052265;28;19949;-77
2022/08/15 05:04:58;;;;;;;3.57;2.70;;;;;;;26.77;46.87;100206.22;5052309;28;20056;-77
2022/08/15 05:07:27;;;;;;;2.83;2.53;;;;;;;26.76;47.04;100201.00;5068839;28;20056;-77
2022/08/15 05:09:58;;;;;;;4.85;3.00;;;;;;;26.75;47.10;100194.72;5050998;28;20052;-76
2022/08/15 05:12:39;;;;;;;3.50;3.20;;;;;;;26.76;47.26;100198.28;5049223;28;20480;-75
2022/08/15 05:15:15;;;;;;;3.47;3.00;;;;;;;26.75;47.13;100200.16;5047702;28;20064;-76
2022/08/15 05:17:47;;;;;;;7.68;2.92;;;;;;;26.76;47.69;100209.13;5048980;28;20071;-75
2022/08/15 05:20:24;;;;;;;4.10;2.60;;;;;;;26.75;47.33;100208.28;5048669;28;20054;-76
2022/08/15 05:22:57;;;;;;;4.05;2.83;;;;;;;26.75;47.50;100208.28;5025671;28;20536;-75
2022/08/15 05:25:30;;;;;;;3.40;2.78;;;;;;;26.76;47.37;100214.56;5036720;28;20045;-76
2022/08/15 05:28:01;;;;;;;4.68;3.15;;;;;;;26.78;47.22;100212.47;5052094;28;20424;-76
2022/08/15 05:30:51;;;;;;;3.88;2.80;;;;;;;26.77;47.16;100208.09;5051974;28;20060;-76
2022/08/15 05:33:27;;;;;;;3.05;2.50;;;;;;;26.76;47.28;100212.69;5052100;28;20087;-75
2022/08/15 05:36:17;;;;;;;4.10;2.80;;;;;;;26.77;47.33;100210.81;5052620;28;20059;-75
2022/08/15 05:39:00;;;;;;;3.70;2.75;;;;;;;26.78;47.38;100207.03;5053251;28;20508;-75
2022/08/15 05:41:32;;;;;;;3.60;2.97;;;;;;;26.77;47.50;100213.53;5051624;28;20056;-75
2022/08/15 05:44:03;;;;;;;3.42;3.08;;;;;;;26.76;47.46;100215.41;5052127;28;20051;-75
2022/08/15 05:47:02;;;;;;;3.28;2.78;;;;;;;26.78;47.46;100221.50;5038921;28;20052;-75
2022/08/15 05:49:50;;;;;;;2.95;2.60;;;;;;;26.78;47.15;100216.06;5035580;28;20049;-75
2022/08/15 05:52:24;;;;;;;3.03;2.60;;;;;;;26.76;47.28;100215.41;5051497;28;20410;-75
2022/08/15 05:55:17;;;;;;;2.97;2.50;;;;;;;26.77;47.12;100214.34;5056511;28;20052;-75
2022/08/15 05:58:12;;;;;;;4.25;2.90;;;;;;;26.76;47.22;100209.97;5055891;28;20048;-75
2022/08/15 06:01:02;;;;;;;3.85;3.20;;;;;;;26.78;47.03;100217.91;5071671;28;20057;-75
2022/08/15 06:03:46;;;;;;;2.78;2.47;;;;;;;26.75;47.01;100202.88;5056496;28;20045;-75
2022/08/15 06:06:21;;;;;;;3.60;3.00;;;;;;;26.77;47.31;100205.38;5056168;28;20480;-75
2022/08/15 06:09:04;;;;;;;3.05;2.75;;;;;;;26.77;47.49;100205.38;5071540;28;20504;-75
2022/08/15 06:11:43;;;;;;;3.05;2.75;;;;;;;26.78;47.45;100212.47;5055277;28;20041;-75
2022/08/15 06:14:30;;;;;;;3.10;2.77;;;;;;;26.77;47.27;100205.38;5051738;28;20053;-75
2022/08/15 06:17:20;;;;;;;3.33;2.85;;;;;;;26.78;47.21;100204.34;5051284;28;20815;-75
2022/08/15 06:19:58;;;;;;;3.20;2.85;;;;;;;26.78;47.22;100201.63;5051578;28;20049;-75
2022/08/15 06:22:32;;;;;;;3.03;2.45;;;;;;;26.78;47.48;100207.03;5050465;28;20045;-75
2022/08/15 06:25:26;;;;;;;5.32;2.58;;;;;;;26.78;47.49;100207.03;5035371;28;20050;-75
2022/08/15 06:28:39;;;;;;;3.42;2.75;;;;;;;26.78;47.38;100212.47;5035471;28;20060;-75
2022/08/15 06:31:31;;;;;;;4.20;2.80;;;;;;;26.78;47.28;100213.34;5034992;28;20053;-75
2022/08/15 06:34:28;;;;;;;3.35;2.80;;;;;;;26.79;47.43;100222.31;5035140;28;20049;-75
2022/08/15 06:37:26;;;;;;;4.32;3.00;;;;;;;26.79;47.59;100222.31;5034758;28;20409;-78
2022/08/15 06:40:02;;;;;;;3.95;3.17;;;;;;;26.80;47.58;100215.84;5034961;28;20050;-75
2022/08/15 06:42:40;;;;;;;3.60;2.90;;;;;;;26.80;47.59;100213.13;5035130;28;20053;-75
2022/08/15 06:45:25;;;;;;;3.20;2.88;;;;;;;26.80;47.45;100216.69;5034946;28;20124;-75
2022/08/15 06:48:00;;;;;;;3.65;2.80;;;;;;;26.81;47.39;100212.09;5035520;28;20060;-75
2022/08/15 06:50:53;;;;;;;3.53;2.83;;;;;;;26.81;47.65;100209.38;5051525;28;20072;-76
2022/08/15 06:53:40;;;;;;;3.45;3.00;;;;;;;26.81;47.60;100215.66;5034463;28;20046;-77
2022/08/15 06:56:31;;;;;;;2.67;2.47;;;;;;;26.81;47.71;100225.66;5034744;28;20053;-76
2022/08/15 06:59:25;;;;;;;3.45;2.58;;;;;;;26.81;47.55;100228.38;5034908;28;20049;-76
2022/08/15 07:02:13;;;;;;;3.20;2.72;;;;;;;26.83;47.47;100231.75;5051595;28;20053;-75
2022/08/15 07:05:15;;;;;;;4.93;3.15;;;;;;;26.82;47.32;100225.50;5034400;28;20080;-75
2022/08/15 07:08:15;;;;;;;3.50;2.53;;;;;;;26.83;47.46;100221.72;5051422;28;20045;-74
2022/08/15 07:10:59;;;;;;;4.28;2.80;;;;;;;26.83;47.49;100221.72;5034378;28;20049;-74
2022/08/15 07:13:58;;;;;;;4.07;2.80;;;;;;;26.84;47.58;100219.84;5053535;28;20519;-75
2022/08/15 07:17:12;;;;;;;3.53;2.88;;;;;;;26.85;47.28;100229.69;5060579;28;20072;-74
2022/08/15 07:19:44;;;;;;;3.60;2.58;;;;;;;26.85;47.39;100232.38;5074370;28;20056;-75
2022/08/15 07:22:35;;;;;;;4.50;2.80;;;;;;;26.86;46.01;100234.09;5067027;28;20045;-76
2022/08/15 07:25:11;;;;;;;;;;;;;;;26.83;45.23;100234.47;5055468;28;20053;-75
2022/08/15 07:27:57;;;;;;;3.55;3.00;;;;;;;26.82;44.46;100233.66;5054318;28;19943;-77
2022/08/15 07:30:55;;;;;;;3.33;2.65;;;;;;;26.81;44.58;100239.25;5054244;28;20045;-76
2022/08/15 07:33:29;;;;;;;3.60;2.92;;;;;;;26.79;44.39;100242.19;5053208;28;20053;-79
2022/08/15 07:36:24;;;;;;;3.60;3.08;;;;;;;26.78;44.67;100243.22;5054932;28;20056;-78
2022/08/15 07:39:33;;;;;;;3.85;2.70;;;;;;;26.78;44.40;100251.38;5034287;28;20041;-78
2022/08/15 07:42:20;;;;;;;4.03;3.03;;;;;;;26.78;43.59;100245.06;5033984;28;20053;-76
2022/08/15 07:45:26;;;;;;;5.05;2.60;;;;;;;26.77;43.58;100244.22;5034343;28;20061;-77
2022/08/15 07:48:03;;;;;;;3.88;2.60;;;;;;;26.76;43.33;100241.72;5034300;28;20512;-76
2022/08/15 07:50:45;;;;;;;3.05;2.75;;;;;;;26.75;43.43;100245.47;5034408;28;20049;-77
2022/08/15 07:53:21;;;;;;;4.07;2.90;;;;;;;26.75;43.05;100251.75;5034060;28;20060;-77
2022/08/15 07:56:15;;;;;;;5.45;2.70;;;;;;;26.75;43.57;100264.50;5049687;28;20067;-77
2022/08/15 07:59:12;;;;;;;3.88;2.90;;;;;;;26.76;43.40;100258.00;5060519;28;20392;-77
2022/08/15 08:02:24;;;;;;;3.58;2.30;;;;;;;26.76;43.43;100258.00;5059526;28;20044;-77
2022/08/15 08:05:04;;;;;;;3.40;2.70;;;;;;;26.76;43.57;100258.84;5074218;28;20052;-79
2022/08/15 08:07:38;;;;;;;3.63;2.58;;;;;;;26.77;43.23;100257.81;5075154;28;20048;-79
2022/08/15 08:10:27;;;;;;;3.50;2.72;;;;;;;26.78;43.36;100255.94;5062569;28;20492;-79
2022/08/15 08:13:34;;;;;;;2.88;2.58;;;;;;;26.79;43.28;100244.06;5053570;28;20041;-78
2022/08/15 08:16:33;;;;;;;4.35;2.65;;;;;;;26.78;42.93;100248.66;5054146;28;20053;-79
2022/08/15 08:19:22;;;;;;;3.42;3.00;;;;;;;26.79;43.76;100254.91;5053551;28;20045;-79
2022/08/15 08:21:57;;;;;;;3.00;2.70;;;;;;;26.80;43.67;100259.31;5052988;28;20056;-78
2022/08/15 08:24:43;;;;;;;2.92;2.58;;;;;;;26.79;43.86;100258.47;5053441;28;20416;-76
2022/08/15 08:27:46;;;;;;;4.40;2.88;;;;;;;26.81;43.96;100250.94;5053302;28;20059;-76
2022/08/15 08:30:31;;;;;;;5.15;2.75;;;;;;;26.82;43.84;100241.78;5016756;28;20496;-75
2022/08/15 08:33:10;;;;;;;4.80;2.90;;;;;;;26.83;43.87;100240.75;5032783;28;20068;-75
2022/08/15 08:35:44;;;;;;;3.05;2.53;;;;;;;26.83;43.51;100240.75;5016111;28;20049;-75
2022/08/15 08:38:23;;;;;;;4.55;2.78;;;;;;;26.83;43.46;100237.19;5032144;28;20157;-76
2022/08/15 08:41:28;;;;;;;4.07;2.78;;;;;;;26.84;43.29;100238.88;5032248;28;20480;-75
2022/08/15 08:43:59;;;;;;;3.47;2.47;;;;;;;26.83;43.52;100229.88;5032080;28;20072;-75
2022/08/15 08:47:23;;;;;;;5.50;2.63;;;;;;;26.85;43.50;100226.97;5032424;28;20061;-75
2022/08/15 08:50:10;;;;;;;3.70;2.90;;;;;;;26.87;43.48;100233.88;5032649;28;20053;-74
2022/08/15 08:53:01;;;;;;;3.80;3.03;;;;;;;26.88;43.52;100234.72;5031877;28;20061;-77
2022/08/15 08:55:47;;;;;;;5.00;3.00;;;;;;;26.91;43.49;100241.66;5015156;28;20092;-75
2022/08/15 08:58:31;;;;;;;5.32;3.45;;;;;;;26.91;42.87;100230.78;5032601;28;20412;-76
2022/08/15 09:01:14;;;;;;;3.45;3.03;;;;;;;26.91;42.67;100228.91;5032508;28;20069;-74
2022/08/15 09:03:47;;;;;;;3.83;2.70;;;;;;;26.92;42.94;100233.28;5031976;28;20049;-74
2022/08/15 09:06:23;;;;;;;4.55;2.83;;;;;;;26.92;42.92;100233.28;5039301;28;20068;-73
2022/08/15 09:09:35;;;;;;;3.65;2.67;;;;;;;26.94;42.81;100233.94;5053799;28;20041;-74
2022/08/15 09:15:01;;;;;;;3.92;3.20;;;;;;;26.95;43.01;100224.75;5046147;28;20048;-75
2022/08/15 09:17:44;;;;;;;6.72;3.17;;;;;;;26.97;43.09;100233.53;5073399;28;20048;-74
2022/08/15 09:20:38;;;;;;;4.47;2.97;;;;;;;26.98;42.76;100245.25;5073940;28;20045;-74
2022/08/15 09:23:10;;;;;;;3.35;2.53;;;;;;;26.98;42.94;100232.53;5062152;28;20045;-75
2022/08/15 09:25:54;;;;;;;4.00;2.67;;;;;;;26.98;42.77;100235.25;5053513;28;20053;-75
2022/08/15 09:28:30;;;;;;;4.43;3.03;;;;;;;27.01;43.13;100228.56;5053555;28;20314;-76
2022/08/15 09:31:05;;;;;;;5.53;3.20;;;;;;;27.02;43.06;100222.06;5053877;28;20055;-74
2022/08/15 09:33:51;;;;;;;4.28;3.30;;;;;;;27.01;42.82;100218.53;5053425;28;20048;-75
2022/08/15 09:36:24;;;;;;;3.65;3.13;;;;;;;27.02;43.11;100216.66;5053747;28;20052;-75
2022/08/15 09:38:59;;;;;;;4.47;2.90;;;;;;;27.03;43.20;100207.47;5036494;28;20067;-75
2022/08/15 09:41:33;;;;;;;5.50;3.58;;;;;;;27.03;43.14;100202.03;5052173;28;20041;-75
2022/08/15 09:44:36;;;;;;;5.47;3.55;;;;;;;27.04;43.44;100198.28;5053038;28;20064;-75
2022/08/15 09:47:39;;;;;;;3.85;3.30;;;;;;;27.04;43.48;100196.41;5053662;28;20048;-77
2022/08/15 09:50:28;;;;;;;2.97;2.50;;;;;;;27.08;43.14;100188.69;5052414;28;20053;-73
2022/08/15 09:53:03;;;;;;;6.50;3.13;;;;;;;27.11;43.23;100189.19;5051752;28;20056;-73
2022/08/15 09:55:34;;;;;;;4.40;3.50;;;;;;;27.13;43.18;100183.53;5052345;28;20053;-73
2022/08/15 09:58:19;;;;;;;3.25;2.80;;;;;;;27.16;43.12;100179.59;5033440;28;20053;-74
2022/08/15 10:00:59;;;;;;;4.50;2.92;;;;;;;27.17;43.28;100178.53;5033311;28;20049;-75
2022/08/15 10:03:45;;;;;;;5.43;3.33;;;;;;;27.17;43.20;100183.97;5037824;28;20049;-75
2022/08/15 10:06:19;;;;;;;5.60;3.00;;;;;;;27.17;43.65;100184.81;5051382;28;20045;-75
2022/08/15 10:09:13;;;;;;;3.55;3.25;;;;;;;27.18;43.29;100185.66;5053458;28;20041;-73
2022/08/15 10:11:46;;;;;;;4.30;2.67;;;;;;;27.19;43.11;100184.63;5052892;28;20051;-73
2022/08/15 10:14:47;;;;;;;4.90;3.28;;;;;;;27.19;42.83;100182.75;5052148;28;20049;-73
2022/08/15 10:17:34;;;;;;;3.53;2.92;;;;;;;27.20;42.69;100184.41;5051215;28;20049;-73
2022/08/15 10:20:18;;;;;;;4.72;2.97;;;;;;;27.20;43.36;100180.88;5051299;28;20408;-73
2022/08/15 10:22:59;;;;;;;4.72;3.05;;;;;;;27.20;43.14;100183.59;5053091;28;20048;-73
2022/08/15 10:25:37;;;;;;;4.28;2.92;;;;;;;27.19;43.18;100180.03;5052396;28;20056;-73
2022/08/15 10:28:12;;;;;;;4.32;3.20;;;;;;;27.20;43.37;100184.41;5051464;28;20052;-73
2022/08/15 10:31:01;;;;;;;;;;;;;;;27.22;43.16;100179.59;5053000;28;20048;-73
2022/08/15 10:33:31;;;;;;;3.88;3.25;;;;;;;27.23;43.04;100191.34;5052950;28;19921;-73
2022/08/15 10:36:05;;;;;;;3.70;3.13;;;;;;;27.26;42.75;100177.34;5052657;28;20045;-73
2022/08/15 10:39:01;;;;;;;4.18;3.30;;;;;;;27.29;42.57;100171.50;5052863;28;20063;-73
2022/08/15 10:41:49;;;;;;;3.53;3.20;;;;;;;27.31;42.71;100169.44;5051703;28;20045;-73
2022/08/15 10:44:52;;;;;;;4.18;3.58;;;;;;;27.33;42.69;100172.78;5050968;28;20064;-74
2022/08/15 10:47:47;;;;;;;4.82;3.33;;;;;;;27.33;42.78;100160.03;5051357;28;20045;-73
2022/08/15 10:50:55;;;;;;;3.78;3.20;;;;;;;27.32;42.81;100161.06;5052480;28;20041;-73
2022/08/15 10:53:49;;;;;;;7.93;3.30;;;;;;;27.32;43.34;100152.09;5013490;28;20049;-73
2022/08/15 10:56:25;;;;;;;5.43;3.80;;;;;;;27.30;43.50;100152.28;5030989;28;20046;-73
2022/08/15 10:59:18;;;;;;;6.85;3.88;;;;;;;27.31;43.54;100153.97;5026119;28;20065;-73
2022/08/15 11:01:50;;;;;;;4.03;3.40;;;;;;;27.30;43.50;100155.00;5019349;28;20374;-73
2022/08/15 11:04:32;;;;;;;3.78;3.17;;;;;;;27.29;43.65;100149.75;5024127;28;20062;-73
2022/08/15 11:07:35;;;;;;;3.58;3.00;;;;;;;27.30;43.69;100146.00;5024217;28;20060;-73
2022/08/15 11:10:11;;;;;;;4.97;3.38;;;;;;;27.29;43.81;100144.31;5014408;28;20452;-73
2022/08/15 11:12:57;;;;;;;3.88;3.00;;;;;;;27.29;43.93;100141.63;5014616;28;20054;-73
2022/08/15 11:15:47;;;;;;;5.67;3.10;;;;;;;27.29;43.63;100152.47;5017337;28;20429;-73
2022/08/15 11:18:25;;;;;;;3.30;3.00;;;;;;;27.28;43.74;100138.06;5015366;28;20065;-74
2022/08/15 11:20:55;;;;;;;4.55;3.00;;;;;;;27.28;43.90;100139.94;5013937;28;20461;-74
2022/08/15 11:23:39;;;;;;;3.67;3.20;;;;;;;27.28;43.84;100127.19;5028363;28;20058;-73
2022/08/15 11:26:12;;;;;;;3.95;3.13;;;;;;;27.29;43.99;100125.31;5033868;28;20432;-73
2022/08/15 11:29:19;;;;;;;3.53;2.83;;;;;;;27.28;44.07;100119.03;5033587;28;20080;-73
2022/08/15 11:31:54;;;;;;;3.70;3.22;;;;;;;27.29;43.82;100119.88;5035472;28;20042;-73
2022/08/15 11:34:38;;;;;;;3.97;3.15;;;;;;;27.28;44.20;100110.88;5035777;28;20049;-74
2022/08/15 11:37:13;;;;;;;3.85;2.85;;;;;;;27.29;44.04;100119.88;5051422;28;20054;-73
2022/08/15 11:39:58;;;;;;;3.17;2.72;;;;;;;27.29;44.08;100109.00;5050631;28;20049;-73
2022/08/15 11:42:33;;;;;;;4.32;2.90;;;;;;;27.29;44.47;100112.56;5034921;28;20052;-75
2022/08/15 11:45:10;;;;;;;4.30;3.15;;;;;;;27.30;44.10;100105.22;5035503;28;20060;-73
2022/08/15 11:47:51;;;;;;;4.15;3.08;;;;;;;27.30;44.43;100100.63;5035271;28;20409;-73
2022/08/15 11:50:33;;;;;;;3.97;3.05;;;;;;;27.30;44.55;100097.91;5050393;28;20405;-74
2022/08/15 11:53:04;;;;;;;3.63;3.00;;;;;;;27.31;44.54;100105.06;5057515;28;20052;-76
2022/08/15 11:55:35;;;;;;;3.85;3.30;;;;;;;27.31;44.30;100099.63;5055193;28;20048;-77
2022/08/15 11:58:13;;;;;;;3.90;3.42;;;;;;;27.31;44.33;100093.34;5067324;28;20056;-76
2022/08/15 12:00:51;;;;;;;4.00;3.60;;;;;;;27.31;44.53;100098.78;5074795;28;20051;-73
2022/08/15 12:03:31;;;;;;;5.47;3.40;;;;;;;27.31;44.40;100099.63;5073637;28;20515;-73
2022/08/15 12:06:20;;;;;;;4.32;3.00;;;;;;;27.31;44.13;100093.34;5075220;28;20049;-74
2022/08/15 12:09:19;;;;;;;3.38;3.08;;;;;;;27.32;44.26;100095.84;5075246;28;20048;-75
2022/08/15 12:12:23;;;;;;;3.10;2.80;;;;;;;27.32;44.59;100095.00;5074788;28;20051;-74
2022/08/15 12:15:16;;;;;;;4.30;3.50;;;;;;;27.32;44.35;100090.41;5075120;28;20052;-75
2022/08/15 12:18:02;;;;;;;4.07;3.20;;;;;;;27.33;44.49;100083.09;5010003;28;20061;-75
2022/08/15 12:20:41;;;;;;;4.90;3.30;;;;;;;27.33;44.61;100080.38;4993090;28;20050;-75
2022/08/15 12:23:22;;;;;;;4.10;3.13;;;;;;;27.33;44.84;100077.66;4988698;28;20062;-75
2022/08/15 12:25:54;;;;;;;3.63;3.15;;;;;;;27.35;44.74;100078.31;5012659;28;20391;-75
2022/08/15 12:28:25;;;;;;;5.05;3.47;;;;;;;27.34;44.70;100080.16;5011816;28;20058;-75
2022/08/15 12:31:34;;;;;;;4.78;3.10;;;;;;;27.35;44.97;100076.41;5012771;28;20057;-74
2022/08/15 12:34:24;;;;;;;3.17;2.72;;;;;;;27.35;44.67;100072.88;5012642;28;20058;-75
2022/08/15 12:37:02;;;;;;;3.50;2.97;;;;;;;27.36;44.91;100074.53;5012806;28;20057;-74
2022/08/15 12:39:42;;;;;;;4.13;2.75;;;;;;;27.35;44.76;100062.84;5012974;28;20042;-75